Aviation Forecast PDF Print E-mail

 
met_logo

NATIONAL METEOROLOGICAL SERVICE OF BELIZE

Area Forecast for the Country of Belize


For the period from:

1200  25  JUNE  2016

to

2400  25  JUNE  2016

All Heights in the forecast are above sea level. PS= Positive, MS= Minus. All times are UTC.


A.

SPECIAL FEATURES of the METEOROLOGICAL SITUATION

MODERATE AND RELATIVELY DRY EASTERLY AIRFLOW PREVAILING OVER AREA...

B.

HEIGHT (Ft)

WIND (True Degrees and Knots)

TEMPERATURE (°C)

Surface

09010

  

PS31-34

2,000

10020

PS22

5,000

11015

PS19

10,000

10015

PS11

C.

CLOUDS (Amount, Type, Ceiling and Top(optional))

 

 FEW CB BASES 1200FT TOPS 30000FT 

 SCT CU BASES 2000FT TOPS 8000FT

 SCT SC BASES 4500FT


D.

SURFACE VISIBILITY:  25KM . 3-8KM IN TSRA / SHRA . 500M IN HILL FOG .


E.

WEATHER:  CPARTLY CLOUDY . ISOLATED SHOWERS OR THUNDERSTORMS . HILL FOG .


Remarks, Warnings, Turbulence

Barometric Changes

LOW CLOUDS COVERING HILLS;

DIURNAL

G.

OUTLOOK:

TO 1200 26 JUNE -

SIMILAR

H. 

TAF  MZBZ

251040Z 2512/2612 09008KT 9999 SCT022 PROB30 TEMPO 2512/2514 5000 SHRA BKN014=

I.

Meteorological Office:

BELIZE

Issued at:

1120 25 JUNE 2016

Forecaster:

RUDON